sensor_id;sensor_type;location;lat;lon;timestamp;temperature;humidity
51557;DHT22;38766;53.194;5.532;2023-04-03T00:00:45;5.10;99.90
51557;DHT22;38766;53.194;5.532;2023-04-03T00:03:11;5.10;99.90
51557;DHT22;38766;53.194;5.532;2023-04-03T00:05:37;5.10;99.90
51557;DHT22;38766;53.194;5.532;2023-04-03T00:08:03;5.10;99.90
51557;DHT22;38766;53.194;5.532;2023-04-03T00:10:29;5.10;99.90
51557;DHT22;38766;53.194;5.532;2023-04-03T00:12:56;5.00;99.90
51557;DHT22;38766;53.194;5.532;2023-04-03T00:15:21;5.00;99.90
51557;DHT22;38766;53.194;5.532;2023-04-03T00:17:47;4.90;99.90
51557;DHT22;38766;53.194;5.532;2023-04-03T00:20:13;4.90;99.90
51557;DHT22;38766;53.194;5.532;2023-04-03T00:22:38;4.90;99.90
51557;DHT22;38766;53.194;5.532;2023-04-03T00:25:05;4.90;99.90
51557;DHT22;38766;53.194;5.532;2023-04-03T00:27:30;4.90;99.90
51557;DHT22;38766;53.194;5.532;2023-04-03T00:29:56;4.80;99.90
51557;DHT22;38766;53.194;5.532;2023-04-03T00:32:22;4.90;99.90
51557;DHT22;38766;53.194;5.532;2023-04-03T00:34:47;4.70;99.90
51557;DHT22;38766;53.194;5.532;2023-04-03T00:37:13;4.80;99.90
51557;DHT22;38766;53.194;5.532;2023-04-03T00:39:38;4.80;99.90
51557;DHT22;38766;53.194;5.532;2023-04-03T00:42:05;4.70;99.90
51557;DHT22;38766;53.194;5.532;2023-04-03T00:47:00;4.60;99.90
51557;DHT22;38766;53.194;5.532;2023-04-03T00:49:26;4.50;99.90
51557;DHT22;38766;53.194;5.532;2023-04-03T00:51:53;4.50;99.90
51557;DHT22;38766;53.194;5.532;2023-04-03T00:54:19;4.50;99.90
51557;DHT22;38766;53.194;5.532;2023-04-03T00:56:45;4.50;99.90
51557;DHT22;38766;53.194;5.532;2023-04-03T00:59:18;4.50;99.90
51557;DHT22;38766;53.194;5.532;2023-04-03T01:01:48;4.40;99.90
51557;DHT22;38766;53.194;5.532;2023-04-03T01:04:32;4.50;99.90
51557;DHT22;38766;53.194;5.532;2023-04-03T01:07:08;4.50;99.90
51557;DHT22;38766;53.194;5.532;2023-04-03T01:09:34;4.40;99.90
51557;DHT22;38766;53.194;5.532;2023-04-03T01:12:28;4.40;99.90
51557;DHT22;38766;53.194;5.532;2023-04-03T01:14:56;4.40;99.90
51557;DHT22;38766;53.194;5.532;2023-04-03T01:17:45;4.40;99.90
51557;DHT22;38766;53.194;5.532;2023-04-03T01:25:46;4.30;99.90
51557;DHT22;38766;53.194;5.532;2023-04-03T01:28:20;4.30;99.90
51557;DHT22;38766;53.194;5.532;2023-04-03T01:33:33;4.20;99.90
51557;DHT22;38766;53.194;5.532;2023-04-03T01:35:59;4.20;99.90
51557;DHT22;38766;53.194;5.532;2023-04-03T01:38:25;4.20;99.90
51557;DHT22;38766;53.194;5.532;2023-04-03T01:40:51;4.30;99.90
51557;DHT22;38766;53.194;5.532;2023-04-03T01:43:16;4.20;99.90
51557;DHT22;38766;53.194;5.532;2023-04-03T01:45:43;4.20;99.90
51557;DHT22;38766;53.194;5.532;2023-04-03T01:48:09;4.20;99.90
51557;DHT22;38766;53.194;5.532;2023-04-03T01:50:34;4.30;99.90
51557;DHT22;38766;53.194;5.532;2023-04-03T01:53:00;4.20;99.90
51557;DHT22;38766;53.194;5.532;2023-04-03T01:55:25;4.10;99.90
51557;DHT22;38766;53.194;5.532;2023-04-03T01:57:51;4.10;99.90
51557;DHT22;38766;53.194;5.532;2023-04-03T02:00:17;4.00;99.90
51557;DHT22;38766;53.194;5.532;2023-04-03T02:02:43;4.00;99.90
51557;DHT22;38766;53.194;5.532;2023-04-03T02:05:08;4.00;99.90
51557;DHT22;38766;53.194;5.532;2023-04-03T02:07:34;3.90;99.90
51557;DHT22;38766;53.194;5.532;2023-04-03T02:10:00;3.90;99.90
51557;DHT22;38766;53.194;5.532;2023-04-03T02:12:26;3.90;99.90
51557;DHT22;38766;53.194;5.532;2023-04-03T02:14:51;4.00;99.90
51557;DHT22;38766;53.194;5.532;2023-04-03T02:17:17;3.90;99.90
51557;DHT22;38766;53.194;5.532;2023-04-03T02:19:42;3.90;99.90
51557;DHT22;38766;53.194;5.532;2023-04-03T02:22:08;3.90;99.90
51557;DHT22;38766;53.194;5.532;2023-04-03T02:24:34;3.80;99.90
51557;DHT22;38766;53.194;5.532;2023-04-03T02:26:59;3.80;99.90
51557;DHT22;38766;53.194;5.532;2023-04-03T02:29:25;3.70;99.90
51557;DHT22;38766;53.194;5.532;2023-04-03T02:31:51;3.70;99.90
51557;DHT22;38766;53.194;5.532;2023-04-03T02:34:17;3.70;99.90
51557;DHT22;38766;53.194;5.532;2023-04-03T02:36:43;3.70;99.90
51557;DHT22;38766;53.194;5.532;2023-04-03T02:39:08;3.70;99.90
51557;DHT22;38766;53.194;5.532;2023-04-03T02:41:34;3.60;99.90
51557;DHT22;38766;53.194;5.532;2023-04-03T02:44:05;3.60;99.90
51557;DHT22;38766;53.194;5.532;2023-04-03T02:46:32;3.60;99.90
51557;DHT22;38766;53.194;5.532;2023-04-03T02:48:58;3.60;99.90
51557;DHT22;38766;53.194;5.532;2023-04-03T02:51:24;3.50;99.90
51557;DHT22;38766;53.194;5.532;2023-04-03T02:53:50;3.50;99.90
51557;DHT22;38766;53.194;5.532;2023-04-03T02:56:16;3.50;99.90
51557;DHT22;38766;53.194;5.532;2023-04-03T02:58:42;3.50;99.90
51557;DHT22;38766;53.194;5.532;2023-04-03T03:01:08;3.50;99.90
51557;DHT22;38766;53.194;5.532;2023-04-03T03:03:34;3.40;99.90
51557;DHT22;38766;53.194;5.532;2023-04-03T03:06:04;3.40;99.90
51557;DHT22;38766;53.194;5.532;2023-04-03T03:08:31;3.40;99.90
51557;DHT22;38766;53.194;5.532;2023-04-03T03:10:57;3.50;99.90
51557;DHT22;38766;53.194;5.532;2023-04-03T03:13:22;3.40;99.90
51557;DHT22;38766;53.194;5.532;2023-04-03T03:15:48;3.40;99.90
51557;DHT22;38766;53.194;5.532;2023-04-03T03:18:14;3.40;99.90
51557;DHT22;38766;53.194;5.532;2023-04-03T03:20:39;3.30;99.90
51557;DHT22;38766;53.194;5.532;2023-04-03T03:23:05;3.30;99.90
51557;DHT22;38766;53.194;5.532;2023-04-03T03:25:31;3.20;99.90
51557;DHT22;38766;53.194;5.532;2023-04-03T03:27:56;3.30;99.90
51557;DHT22;38766;53.194;5.532;2023-04-03T03:30:22;3.30;99.90
51557;DHT22;38766;53.194;5.532;2023-04-03T03:32:48;3.30;99.90
51557;DHT22;38766;53.194;5.532;2023-04-03T03:35:13;3.30;99.90
51557;DHT22;38766;53.194;5.532;2023-04-03T03:37:39;3.30;99.90
51557;DHT22;38766;53.194;5.532;2023-04-03T03:40:05;3.30;99.90
51557;DHT22;38766;53.194;5.532;2023-04-03T03:42:31;3.30;99.90
51557;DHT22;38766;53.194;5.532;2023-04-03T03:44:57;3.20;99.90
51557;DHT22;38766;53.194;5.532;2023-04-03T03:47:22;3.20;99.90
51557;DHT22;38766;53.194;5.532;2023-04-03T03:49:48;3.20;99.90
51557;DHT22;38766;53.194;5.532;2023-04-03T03:52:13;3.20;99.90
51557;DHT22;38766;53.194;5.532;2023-04-03T03:54:39;3.20;99.90
51557;DHT22;38766;53.194;5.532;2023-04-03T03:57:05;3.20;99.90
51557;DHT22;38766;53.194;5.532;2023-04-03T03:59:31;3.10;99.90
51557;DHT22;38766;53.194;5.532;2023-04-03T04:01:56;3.10;99.90
51557;DHT22;38766;53.194;5.532;2023-04-03T04:04:22;3.10;99.90
51557;DHT22;38766;53.194;5.532;2023-04-03T04:06:48;3.00;99.90
51557;DHT22;38766;53.194;5.532;2023-04-03T04:09:14;3.00;99.90
51557;DHT22;38766;53.194;5.532;2023-04-03T04:11:39;3.10;99.90
51557;DHT22;38766;53.194;5.532;2023-04-03T04:14:06;3.00;99.90
51557;DHT22;38766;53.194;5.532;2023-04-03T04:16:32;3.00;99.90
51557;DHT22;38766;53.194;5.532;2023-04-03T04:18:58;2.90;99.90
51557;DHT22;38766;53.194;5.532;2023-04-03T04:21:23;3.00;99.90
51557;DHT22;38766;53.194;5.532;2023-04-03T04:23:49;3.00;99.90
51557;DHT22;38766;53.194;5.532;2023-04-03T04:26:15;3.00;99.90
51557;DHT22;38766;53.194;5.532;2023-04-03T04:28:41;3.00;99.90
51557;DHT22;38766;53.194;5.532;2023-04-03T04:31:06;3.00;99.90
51557;DHT22;38766;53.194;5.532;2023-04-03T04:33:32;3.00;99.90
51557;DHT22;38766;53.194;5.532;2023-04-03T04:35:57;3.00;99.90
51557;DHT22;38766;53.194;5.532;2023-04-03T04:38:24;2.90;99.90
51557;DHT22;38766;53.194;5.532;2023-04-03T04:40:50;2.90;99.90
51557;DHT22;38766;53.194;5.532;2023-04-03T04:43:16;2.90;99.90
51557;DHT22;38766;53.194;5.532;2023-04-03T04:45:42;2.90;99.90
51557;DHT22;38766;53.194;5.532;2023-04-03T04:48:08;2.90;99.90
51557;DHT22;38766;53.194;5.532;2023-04-03T04:50:33;2.90;99.90
51557;DHT22;38766;53.194;5.532;2023-04-03T04:52:59;2.90;99.90
51557;DHT22;38766;53.194;5.532;2023-04-03T04:55:24;2.90;99.90
51557;DHT22;38766;53.194;5.532;2023-04-03T04:57:50;2.80;99.90
51557;DHT22;38766;53.194;5.532;2023-04-03T05:00:16;2.90;99.90
51557;DHT22;38766;53.194;5.532;2023-04-03T05:02:42;2.80;99.90
51557;DHT22;38766;53.194;5.532;2023-04-03T05:05:08;2.90;99.90
51557;DHT22;38766;53.194;5.532;2023-04-03T05:07:33;2.80;99.90
51557;DHT22;38766;53.194;5.532;2023-04-03T05:10:01;2.80;99.90
51557;DHT22;38766;53.194;5.532;2023-04-03T05:12:28;2.80;99.90
51557;DHT22;38766;53.194;5.532;2023-04-03T05:14:54;2.80;99.90
51557;DHT22;38766;53.194;5.532;2023-04-03T05:17:20;2.70;99.90
51557;DHT22;38766;53.194;5.532;2023-04-03T05:19:45;2.70;99.90
51557;DHT22;38766;53.194;5.532;2023-04-03T05:22:11;2.70;99.90
51557;DHT22;38766;53.194;5.532;2023-04-03T05:24:37;2.70;99.90
51557;DHT22;38766;53.194;5.532;2023-04-03T05:27:02;2.70;99.90
51557;DHT22;38766;53.194;5.532;2023-04-03T05:29:28;2.60;99.90
51557;DHT22;38766;53.194;5.532;2023-04-03T05:31:54;2.60;99.90
51557;DHT22;38766;53.194;5.532;2023-04-03T05:34:19;2.60;99.90
51557;DHT22;38766;53.194;5.532;2023-04-03T05:36:45;2.60;99.90
51557;DHT22;38766;53.194;5.532;2023-04-03T05:39:11;2.60;99.90
51557;DHT22;38766;53.194;5.532;2023-04-03T05:41:37;2.60;99.90
51557;DHT22;38766;53.194;5.532;2023-04-03T05:44:02;2.60;99.90
51557;DHT22;38766;53.194;5.532;2023-04-03T05:46:28;2.60;99.90
51557;DHT22;38766;53.194;5.532;2023-04-03T05:48:54;2.60;99.90
51557;DHT22;38766;53.194;5.532;2023-04-03T05:51:25;2.60;99.90
51557;DHT22;38766;53.194;5.532;2023-04-03T05:53:59;2.50;99.90
51557;DHT22;38766;53.194;5.532;2023-04-03T05:56:26;2.50;99.90
51557;DHT22;38766;53.194;5.532;2023-04-03T05:58:52;2.50;99.90
51557;DHT22;38766;53.194;5.532;2023-04-03T06:01:17;2.50;99.90
51557;DHT22;38766;53.194;5.532;2023-04-03T06:03:43;2.60;99.90
51557;DHT22;38766;53.194;5.532;2023-04-03T06:06:13;2.60;99.90
51557;DHT22;38766;53.194;5.532;2023-04-03T06:08:39;2.60;99.90
51557;DHT22;38766;53.194;5.532;2023-04-03T06:11:05;2.70;99.90
51557;DHT22;38766;53.194;5.532;2023-04-03T06:13:31;2.80;99.90
51557;DHT22;38766;53.194;5.532;2023-04-03T06:15:57;2.80;99.90
51557;DHT22;38766;53.194;5.532;2023-04-03T06:18:23;2.80;99.90
51557;DHT22;38766;53.194;5.532;2023-04-03T06:20:49;2.80;99.90
51557;DHT22;38766;53.194;5.532;2023-04-03T06:23:15;2.90;99.90
51557;DHT22;38766;53.194;5.532;2023-04-03T06:25:41;2.80;99.90
51557;DHT22;38766;53.194;5.532;2023-04-03T06:28:08;3.00;99.90
51557;DHT22;38766;53.194;5.532;2023-04-03T06:30:36;2.90;99.90
51557;DHT22;38766;53.194;5.532;2023-04-03T06:33:02;3.00;99.90
51557;DHT22;38766;53.194;5.532;2023-04-03T06:35:28;3.00;99.90
51557;DHT22;38766;53.194;5.532;2023-04-03T06:37:55;3.00;99.90
51557;DHT22;38766;53.194;5.532;2023-04-03T06:40:23;3.00;99.90
51557;DHT22;38766;53.194;5.532;2023-04-03T06:42:49;3.10;99.90
51557;DHT22;38766;53.194;5.532;2023-04-03T06:45:15;3.10;99.90
51557;DHT22;38766;53.194;5.532;2023-04-03T06:47:41;3.10;99.90
51557;DHT22;38766;53.194;5.532;2023-04-03T06:50:07;3.20;99.90
51557;DHT22;38766;53.194;5.532;2023-04-03T06:52:34;3.30;99.90
51557;DHT22;38766;53.194;5.532;2023-04-03T06:55:00;3.40;99.90
51557;DHT22;38766;53.194;5.532;2023-04-03T06:57:26;3.40;99.90
51557;DHT22;38766;53.194;5.532;2023-04-03T06:59:52;3.70;99.90
51557;DHT22;38766;53.194;5.532;2023-04-03T07:02:18;4.10;99.90
51557;DHT22;38766;53.194;5.532;2023-04-03T07:04:44;4.40;99.90
51557;DHT22;38766;53.194;5.532;2023-04-03T07:07:10;4.90;99.90
51557;DHT22;38766;53.194;5.532;2023-04-03T07:09:36;5.30;99.90
51557;DHT22;38766;53.194;5.532;2023-04-03T07:12:02;5.60;99.90
51557;DHT22;38766;53.194;5.532;2023-04-03T07:14:28;5.70;99.90
51557;DHT22;38766;53.194;5.532;2023-04-03T07:16:53;6.00;99.90
51557;DHT22;38766;53.194;5.532;2023-04-03T07:19:19;6.20;99.90
51557;DHT22;38766;53.194;5.532;2023-04-03T07:21:45;6.40;99.90
51557;DHT22;38766;53.194;5.532;2023-04-03T07:24:11;6.60;99.90
51557;DHT22;38766;53.194;5.532;2023-04-03T07:26:37;6.90;99.90
51557;DHT22;38766;53.194;5.532;2023-04-03T07:29:02;7.10;99.90
51557;DHT22;38766;53.194;5.532;2023-04-03T07:31:28;7.10;99.90
51557;DHT22;38766;53.194;5.532;2023-04-03T07:33:54;7.20;99.90
51557;DHT22;38766;53.194;5.532;2023-04-03T07:36:21;7.30;99.90
51557;DHT22;38766;53.194;5.532;2023-04-03T07:38:47;7.50;99.90
51557;DHT22;38766;53.194;5.532;2023-04-03T07:41:19;7.50;99.90
51557;DHT22;38766;53.194;5.532;2023-04-03T07:43:46;7.60;99.90
51557;DHT22;38766;53.194;5.532;2023-04-03T07:46:12;7.70;99.90
51557;DHT22;38766;53.194;5.532;2023-04-03T07:48:38;7.70;99.90
51557;DHT22;38766;53.194;5.532;2023-04-03T07:51:05;7.70;99.90
51557;DHT22;38766;53.194;5.532;2023-04-03T07:53:31;7.70;99.90
51557;DHT22;38766;53.194;5.532;2023-04-03T07:55:58;7.70;99.90
51557;DHT22;38766;53.194;5.532;2023-04-03T07:58:24;7.70;99.90
51557;DHT22;38766;53.194;5.532;2023-04-03T08:00:51;7.80;99.90
51557;DHT22;38766;53.194;5.532;2023-04-03T08:03:17;8.00;99.90
51557;DHT22;38766;53.194;5.532;2023-04-03T08:05:47;8.10;99.90
51557;DHT22;38766;53.194;5.532;2023-04-03T08:08:16;8.20;99.90
51557;DHT22;38766;53.194;5.532;2023-04-03T08:10:42;8.40;99.90
51557;DHT22;38766;53.194;5.532;2023-04-03T08:13:09;8.50;99.90
51557;DHT22;38766;53.194;5.532;2023-04-03T08:15:35;8.50;99.90
51557;DHT22;38766;53.194;5.532;2023-04-03T08:18:01;8.30;99.60
51557;DHT22;38766;53.194;5.532;2023-04-03T08:20:27;8.20;99.70
51557;DHT22;38766;53.194;5.532;2023-04-03T08:22:53;8.10;99.80
51557;DHT22;38766;53.194;5.532;2023-04-03T08:25:19;8.10;99.90
51557;DHT22;38766;53.194;5.532;2023-04-03T08:27:45;8.20;99.90
51557;DHT22;38766;53.194;5.532;2023-04-03T08:30:12;8.40;99.90
51557;DHT22;38766;53.194;5.532;2023-04-03T08:32:38;8.60;99.90
51557;DHT22;38766;53.194;5.532;2023-04-03T08:35:04;8.60;99.00
51557;DHT22;38766;53.194;5.532;2023-04-03T08:37:31;8.50;98.70
51557;DHT22;38766;53.194;5.532;2023-04-03T08:39:57;8.50;99.10
51557;DHT22;38766;53.194;5.532;2023-04-03T08:42:37;8.60;98.60
51557;DHT22;38766;53.194;5.532;2023-04-03T08:45:21;8.70;97.10
51557;DHT22;38766;53.194;5.532;2023-04-03T08:48:11;8.80;97.60
51557;DHT22;38766;53.194;5.532;2023-04-03T08:50:51;9.10;97.70
51557;DHT22;38766;53.194;5.532;2023-04-03T08:53:21;9.30;97.40
51557;DHT22;38766;53.194;5.532;2023-04-03T08:55:53;9.50;97.10
51557;DHT22;38766;53.194;5.532;2023-04-03T08:58:28;9.60;96.10
51557;DHT22;38766;53.194;5.532;2023-04-03T09:00:59;9.80;95.60
51557;DHT22;38766;53.194;5.532;2023-04-03T09:03:30;9.80;92.50
51557;DHT22;38766;53.194;5.532;2023-04-03T09:08:28;10.00;94.40
51557;DHT22;38766;53.194;5.532;2023-04-03T09:21:43;9.70;90.30
51557;DHT22;38766;53.194;5.532;2023-04-03T09:24:15;9.60;90.00
51557;DHT22;38766;53.194;5.532;2023-04-03T09:26:56;9.70;87.50
51557;DHT22;38766;53.194;5.532;2023-04-03T09:29:26;9.80;87.50
51557;DHT22;38766;53.194;5.532;2023-04-03T09:32:02;9.70;84.40
51557;DHT22;38766;53.194;5.532;2023-04-03T09:34:37;9.90;84.50
51557;DHT22;38766;53.194;5.532;2023-04-03T09:37:04;10.00;83.70
51557;DHT22;38766;53.194;5.532;2023-04-03T09:39:54;10.20;83.30
51557;DHT22;38766;53.194;5.532;2023-04-03T09:42:25;10.40;80.20
51557;DHT22;38766;53.194;5.532;2023-04-03T09:45:00;10.50;81.60
51557;DHT22;38766;53.194;5.532;2023-04-03T09:47:36;10.60;81.90
51557;DHT22;38766;53.194;5.532;2023-04-03T09:52:47;11.00;78.60
51557;DHT22;38766;53.194;5.532;2023-04-03T09:55:25;11.20;80.20
51557;DHT22;38766;53.194;5.532;2023-04-03T09:58:04;11.40;77.50
51557;DHT22;38766;53.194;5.532;2023-04-03T10:00:35;11.60;76.60
51557;DHT22;38766;53.194;5.532;2023-04-03T10:03:02;11.60;73.70
51557;DHT22;38766;53.194;5.532;2023-04-03T10:05:35;11.70;73.20
51557;DHT22;38766;53.194;5.532;2023-04-03T10:10:47;11.50;69.20
51557;DHT22;38766;53.194;5.532;2023-04-03T10:13:18;11.60;70.70
51557;DHT22;38766;53.194;5.532;2023-04-03T10:16:03;11.80;71.60
51557;DHT22;38766;53.194;5.532;2023-04-03T10:18:42;12.10;70.90
51557;DHT22;38766;53.194;5.532;2023-04-03T10:21:26;12.30;70.00
51557;DHT22;38766;53.194;5.532;2023-04-03T10:27:04;12.40;65.70
51557;DHT22;38766;53.194;5.532;2023-04-03T10:34:46;12.20;61.40
51557;DHT22;38766;53.194;5.532;2023-04-03T10:39:53;12.30;63.30
51557;DHT22;38766;53.194;5.532;2023-04-03T10:42:42;12.20;61.50
51557;DHT22;38766;53.194;5.532;2023-04-03T10:50:44;12.50;61.50
51557;DHT22;38766;53.194;5.532;2023-04-03T10:53:26;12.40;57.90
51557;DHT22;38766;53.194;5.532;2023-04-03T10:56:21;12.40;58.90
51557;DHT22;38766;53.194;5.532;2023-04-03T10:58:56;12.50;57.80
51557;DHT22;38766;53.194;5.532;2023-04-03T11:01:35;12.60;58.10
51557;DHT22;38766;53.194;5.532;2023-04-03T11:04:05;12.70;57.00
51557;DHT22;38766;53.194;5.532;2023-04-03T11:06:49;12.70;56.50
51557;DHT22;38766;53.194;5.532;2023-04-03T11:09:35;12.80;55.70
51557;DHT22;38766;53.194;5.532;2023-04-03T11:12:11;12.90;56.20
51557;DHT22;38766;53.194;5.532;2023-04-03T11:14:38;13.00;57.50
51557;DHT22;38766;53.194;5.532;2023-04-03T11:25:04;13.40;54.20
51557;DHT22;38766;53.194;5.532;2023-04-03T11:27:38;13.50;54.30
51557;DHT22;38766;53.194;5.532;2023-04-03T11:30:09;13.60;54.00
51557;DHT22;38766;53.194;5.532;2023-04-03T11:35:51;13.50;51.10
51557;DHT22;38766;53.194;5.532;2023-04-03T11:38:27;13.20;51.20
51557;DHT22;38766;53.194;5.532;2023-04-03T11:40:56;13.10;52.80
51557;DHT22;38766;53.194;5.532;2023-04-03T11:43:25;13.00;50.90
51557;DHT22;38766;53.194;5.532;2023-04-03T11:45:54;13.00;52.00
51557;DHT22;38766;53.194;5.532;2023-04-03T11:50:54;12.50;50.70
51557;DHT22;38766;53.194;5.532;2023-04-03T11:58:32;12.80;53.50
51557;DHT22;38766;53.194;5.532;2023-04-03T12:01:09;13.00;53.10
51557;DHT22;38766;53.194;5.532;2023-04-03T12:21:23;13.20;52.20
51557;DHT22;38766;53.194;5.532;2023-04-03T12:35:35;13.20;50.80
51557;DHT22;38766;53.194;5.532;2023-04-03T12:46:43;13.00;47.90
51557;DHT22;38766;53.194;5.532;2023-04-03T12:49:41;12.90;49.90
51557;DHT22;38766;53.194;5.532;2023-04-03T12:52:39;12.90;49.30
51557;DHT22;38766;53.194;5.532;2023-04-03T12:55:21;12.80;49.00
51557;DHT22;38766;53.194;5.532;2023-04-03T12:57:47;12.80;50.80
51557;DHT22;38766;53.194;5.532;2023-04-03T13:00:32;12.70;49.70
51557;DHT22;38766;53.194;5.532;2023-04-03T13:02:59;12.60;48.90
51557;DHT22;38766;53.194;5.532;2023-04-03T13:05:27;12.60;50.40
51557;DHT22;38766;53.194;5.532;2023-04-03T13:08:02;12.50;50.30
51557;DHT22;38766;53.194;5.532;2023-04-03T13:10:29;12.60;50.80
51557;DHT22;38766;53.194;5.532;2023-04-03T13:13:10;12.70;51.00
51557;DHT22;38766;53.194;5.532;2023-04-03T13:15:45;12.70;50.00
51557;DHT22;38766;53.194;5.532;2023-04-03T13:18:32;12.80;51.80
51557;DHT22;38766;53.194;5.532;2023-04-03T13:21:02;12.70;48.00
51557;DHT22;38766;53.194;5.532;2023-04-03T13:23:29;12.70;50.10
51557;DHT22;38766;53.194;5.532;2023-04-03T13:25:57;12.80;51.10
51557;DHT22;38766;53.194;5.532;2023-04-03T13:28:27;12.80;50.50
51557;DHT22;38766;53.194;5.532;2023-04-03T13:31:04;12.80;50.90
51557;DHT22;38766;53.194;5.532;2023-04-03T13:33:33;12.70;49.70
51557;DHT22;38766;53.194;5.532;2023-04-03T13:38:33;12.70;50.60
51557;DHT22;38766;53.194;5.532;2023-04-03T13:41:20;12.70;50.70
51557;DHT22;38766;53.194;5.532;2023-04-03T13:43:47;12.70;50.10
51557;DHT22;38766;53.194;5.532;2023-04-03T13:48:50;12.70;51.10
51557;DHT22;38766;53.194;5.532;2023-04-03T13:51:18;12.70;50.90
51557;DHT22;38766;53.194;5.532;2023-04-03T13:53:48;12.70;51.10
51557;DHT22;38766;53.194;5.532;2023-04-03T13:56:45;12.70;50.80
51557;DHT22;38766;53.194;5.532;2023-04-03T14:04:45;12.80;51.30
51557;DHT22;38766;53.194;5.532;2023-04-03T14:07:03;12.70;51.20
51557;DHT22;38766;53.194;5.532;2023-04-03T14:09:29;12.60;51.70
51557;DHT22;38766;53.194;5.532;2023-04-03T14:12:08;12.50;51.30
51557;DHT22;38766;53.194;5.532;2023-04-03T14:14:38;12.50;52.10
51557;DHT22;38766;53.194;5.532;2023-04-03T14:17:18;12.40;50.80
51557;DHT22;38766;53.194;5.532;2023-04-03T14:19:44;12.40;51.10
51557;DHT22;38766;53.194;5.532;2023-04-03T14:22:20;12.40;51.50
51557;DHT22;38766;53.194;5.532;2023-04-03T14:24:48;12.40;52.00
51557;DHT22;38766;53.194;5.532;2023-04-03T14:27:19;12.50;52.20
51557;DHT22;38766;53.194;5.532;2023-04-03T14:29:46;12.50;51.90
51557;DHT22;38766;53.194;5.532;2023-04-03T14:32:15;12.40;52.20
51557;DHT22;38766;53.194;5.532;2023-04-03T14:34:42;12.40;51.90
51557;DHT22;38766;53.194;5.532;2023-04-03T14:37:15;12.40;52.00
51557;DHT22;38766;53.194;5.532;2023-04-03T14:39:42;12.40;52.30
51557;DHT22;38766;53.194;5.532;2023-04-03T14:42:16;12.40;52.40
51557;DHT22;38766;53.194;5.532;2023-04-03T14:44:42;12.40;52.30
51557;DHT22;38766;53.194;5.532;2023-04-03T14:47:18;12.40;51.90
51557;DHT22;38766;53.194;5.532;2023-04-03T14:49:44;12.40;52.30
51557;DHT22;38766;53.194;5.532;2023-04-03T14:52:24;12.40;53.00
51557;DHT22;38766;53.194;5.532;2023-04-03T14:54:52;12.40;51.90
51557;DHT22;38766;53.194;5.532;2023-04-03T14:57:18;12.30;52.80
51557;DHT22;38766;53.194;5.532;2023-04-03T14:59:45;12.30;52.70
51557;DHT22;38766;53.194;5.532;2023-04-03T15:04:55;12.10;52.80
51557;DHT22;38766;53.194;5.532;2023-04-03T15:07:23;12.10;53.40
51557;DHT22;38766;53.194;5.532;2023-04-03T15:09:49;12.10;53.30
51557;DHT22;38766;53.194;5.532;2023-04-03T15:12:15;12.10;53.90
51557;DHT22;38766;53.194;5.532;2023-04-03T15:14:41;12.10;53.40
51557;DHT22;38766;53.194;5.532;2023-04-03T15:17:15;12.00;53.30
51557;DHT22;38766;53.194;5.532;2023-04-03T15:19:42;11.90;53.20
51557;DHT22;38766;53.194;5.532;2023-04-03T15:22:19;12.00;54.00
51557;DHT22;38766;53.194;5.532;2023-04-03T15:24:45;11.90;54.00
51557;DHT22;38766;53.194;5.532;2023-04-03T15:27:12;11.90;54.10
51557;DHT22;38766;53.194;5.532;2023-04-03T15:29:39;11.80;54.00
51557;DHT22;38766;53.194;5.532;2023-04-03T15:32:05;11.90;53.60
51557;DHT22;38766;53.194;5.532;2023-04-03T15:34:32;11.90;53.60
51557;DHT22;38766;53.194;5.532;2023-04-03T15:36:58;11.90;53.40
51557;DHT22;38766;53.194;5.532;2023-04-03T15:39:25;11.90;53.80
51557;DHT22;38766;53.194;5.532;2023-04-03T15:41:51;11.90;55.10
51557;DHT22;38766;53.194;5.532;2023-04-03T15:44:17;11.80;56.70
51557;DHT22;38766;53.194;5.532;2023-04-03T15:46:44;11.80;57.50
51557;DHT22;38766;53.194;5.532;2023-04-03T15:49:11;11.70;58.30
51557;DHT22;38766;53.194;5.532;2023-04-03T15:51:37;11.60;59.00
51557;DHT22;38766;53.194;5.532;2023-04-03T15:54:03;11.60;59.70
51557;DHT22;38766;53.194;5.532;2023-04-03T15:56:29;11.50;60.00
51557;DHT22;38766;53.194;5.532;2023-04-03T15:58:55;11.40;60.40
51557;DHT22;38766;53.194;5.532;2023-04-03T16:01:20;11.40;61.30
51557;DHT22;38766;53.194;5.532;2023-04-03T16:03:46;11.30;61.60
51557;DHT22;38766;53.194;5.532;2023-04-03T16:06:14;11.30;61.70
51557;DHT22;38766;53.194;5.532;2023-04-03T16:08:41;11.20;61.90
51557;DHT22;38766;53.194;5.532;2023-04-03T16:11:07;11.20;62.40
51557;DHT22;38766;53.194;5.532;2023-04-03T16:13:33;11.30;62.70
51557;DHT22;38766;53.194;5.532;2023-04-03T16:16:00;11.00;62.40
51557;DHT22;38766;53.194;5.532;2023-04-03T16:18:28;11.00;62.80
51557;DHT22;38766;53.194;5.532;2023-04-03T16:20:54;10.80;63.20
51557;DHT22;38766;53.194;5.532;2023-04-03T16:23:20;10.80;63.90
51557;DHT22;38766;53.194;5.532;2023-04-03T16:25:46;10.80;63.40
51557;DHT22;38766;53.194;5.532;2023-04-03T16:28:16;10.70;63.40
51557;DHT22;38766;53.194;5.532;2023-04-03T16:30:46;10.60;63.60
51557;DHT22;38766;53.194;5.532;2023-04-03T16:33:13;10.60;63.90
51557;DHT22;38766;53.194;5.532;2023-04-03T16:35:39;10.50;63.70
51557;DHT22;38766;53.194;5.532;2023-04-03T16:38:07;10.50;63.80
51557;DHT22;38766;53.194;5.532;2023-04-03T16:40:33;10.50;63.60
51557;DHT22;38766;53.194;5.532;2023-04-03T16:43:01;10.40;63.40
51557;DHT22;38766;53.194;5.532;2023-04-03T16:45:27;10.40;63.40
51557;DHT22;38766;53.194;5.532;2023-04-03T16:47:53;10.30;63.30
51557;DHT22;38766;53.194;5.532;2023-04-03T16:50:19;10.20;63.20
51557;DHT22;38766;53.194;5.532;2023-04-03T16:52:46;10.20;63.50
51557;DHT22;38766;53.194;5.532;2023-04-03T16:55:12;10.20;63.80
51557;DHT22;38766;53.194;5.532;2023-04-03T16:57:38;10.10;63.90
51557;DHT22;38766;53.194;5.532;2023-04-03T17:00:04;10.10;64.10
51557;DHT22;38766;53.194;5.532;2023-04-03T17:02:31;10.00;64.20
51557;DHT22;38766;53.194;5.532;2023-04-03T17:04:56;9.90;64.50
51557;DHT22;38766;53.194;5.532;2023-04-03T17:07:23;9.90;65.00
51557;DHT22;38766;53.194;5.532;2023-04-03T17:09:49;9.70;65.00
51557;DHT22;38766;53.194;5.532;2023-04-03T17:12:15;9.60;65.10
51557;DHT22;38766;53.194;5.532;2023-04-03T17:14:42;9.60;65.50
51557;DHT22;38766;53.194;5.532;2023-04-03T17:17:08;9.60;66.00
51557;DHT22;38766;53.194;5.532;2023-04-03T17:19:35;9.40;66.40
51557;DHT22;38766;53.194;5.532;2023-04-03T17:22:01;9.40;67.00
51557;DHT22;38766;53.194;5.532;2023-04-03T17:24:27;9.40;67.40
51557;DHT22;38766;53.194;5.532;2023-04-03T17:26:53;9.30;67.60
51557;DHT22;38766;53.194;5.532;2023-04-03T17:29:19;9.20;68.00
51557;DHT22;38766;53.194;5.532;2023-04-03T17:31:45;9.10;68.20
51557;DHT22;38766;53.194;5.532;2023-04-03T17:34:11;9.00;68.60
51557;DHT22;38766;53.194;5.532;2023-04-03T17:36:37;9.00;69.10
51557;DHT22;38766;53.194;5.532;2023-04-03T17:39:04;9.00;69.30
51557;DHT22;38766;53.194;5.532;2023-04-03T17:41:30;8.90;69.60
51557;DHT22;38766;53.194;5.532;2023-04-03T17:43:56;8.80;70.40